Time;durP1;ratioP1;P1;durP2;ratioP2;P2;SDS_P1;SDS_P2;PMS_P1;PMS_P2;Temp;Humidity;BMP_temperature;BMP_pressure;BME280_temperature;BME280_humidity;BME280_pressure;Samples;Min_cycle;Max_cycle;Signal;HPM_P1;HPM_P2
2023/04/17 00:00:05;;;;;;;25.00;16.10;;;;;;;8.35;100.00;100522.55;105860;1256;73904;-47
2023/04/17 00:02:38;;;;;;;20.40;13.80;;;;;;;8.37;100.00;100524.49;107580;1257;66678;-52
2023/04/17 00:05:08;;;;;;;18.40;12.00;;;;;;;8.38;100.00;100522.14;105690;1261;72977;-49
2023/04/17 00:07:40;;;;;;;11.60;9.40;;;;;;;8.40;100.00;100520.13;106140;1257;61911;-49
2023/04/17 00:10:08;;;;;;;11.80;10.30;;;;;;;8.41;100.00;100519.39;105404;1258;61528;-51
2023/04/17 00:12:37;;;;;;;13.80;9.80;;;;;;;8.43;100.00;100521.11;105363;1260;72876;-52
2023/04/17 00:15:05;;;;;;;10.90;9.70;;;;;;;8.44;100.00;100523.39;105574;1257;66649;-48
2023/04/17 00:17:33;;;;;;;11.50;9.30;;;;;;;8.45;100.00;100521.95;106306;1260;73083;-49
2023/04/17 00:20:06;;;;;;;9.70;8.80;;;;;;;8.46;100.00;100523.54;105405;1257;62181;-53
2023/04/17 00:22:36;;;;;;;10.80;9.80;;;;;;;8.47;100.00;100529.21;108340;1254;62531;-49
2023/04/17 00:25:04;;;;;;;13.60;8.60;;;;;;;8.49;100.00;100530.42;109059;1254;72948;-51
2023/04/17 00:27:32;;;;;;;10.40;9.40;;;;;;;8.48;100.00;100525.08;108996;1254;66852;-48
2023/04/17 00:30:01;;;;;;;9.90;8.90;;;;;;;8.49;100.00;100527.02;109000;1254;72850;-48
2023/04/17 00:32:29;;;;;;;10.70;9.70;;;;;;;8.51;100.00;100530.35;108978;1256;61207;-51
2023/04/17 00:34:57;;;;;;;9.80;8.30;;;;;;;8.51;100.00;100525.88;108988;1254;58114;-51
2023/04/17 00:37:25;;;;;;;11.70;8.70;;;;;;;8.52;100.00;100524.78;109020;1254;72772;-52
2023/04/17 00:39:53;;;;;;;9.30;8.10;;;;;;;8.52;100.00;100523.70;109043;1254;66574;-47
2023/04/17 00:42:20;;;;;;;12.80;8.90;;;;;;;8.53;100.00;100526.90;108966;1254;71756;-48
2023/04/17 00:44:49;;;;;;;11.00;9.50;;;;;;;8.54;100.00;100526.70;109009;1254;62460;-51
2023/04/17 00:47:17;;;;;;;9.30;8.40;;;;;;;8.54;100.00;100532.44;105511;1254;60415;-50
2023/04/17 00:49:45;;;;;;;10.90;8.50;;;;;;;8.54;100.00;100529.02;108699;1258;73102;-53
2023/04/17 00:52:15;;;;;;;10.00;8.30;;;;;;;8.55;100.00;100522.39;108979;1254;66427;-52
2023/04/17 00:54:43;;;;;;;10.00;9.00;;;;;;;8.55;100.00;100520.23;108802;1254;71104;-51
2023/04/17 00:57:11;;;;;;;10.50;7.70;;;;;;;8.55;100.00;100520.78;108985;1254;62718;-51
2023/04/17 00:59:39;;;;;;;10.40;8.80;;;;;;;8.56;100.00;100520.95;108993;1254;59577;-51
2023/04/17 01:02:07;;;;;;;12.30;8.00;;;;;;;8.57;100.00;100523.59;109034;1254;74062;-50
2023/04/17 01:04:35;;;;;;;11.10;8.30;;;;;;;8.59;100.00;100522.84;108853;1254;66840;-49
2023/04/17 01:07:03;;;;;;;10.00;8.30;;;;;;;8.59;100.00;100521.94;108835;1254;73666;-46
2023/04/17 01:09:31;;;;;;;12.80;9.10;;;;;;;8.58;100.00;100523.92;105363;1259;62024;-48
2023/04/17 01:12:17;;;;;;;8.50;7.20;;;;;;;8.58;100.00;100523.20;105384;1255;60828;-49
2023/04/17 01:14:46;;;;;;;9.40;7.00;;;;;;;8.57;100.00;100528.59;105341;1255;74000;-52
2023/04/17 01:17:14;;;;;;;13.30;7.40;;;;;;;8.56;100.00;100523.44;106175;1257;67341;-50
2023/04/17 01:19:42;;;;;;;10.90;6.70;;;;;;;8.55;100.00;100525.95;105846;1258;73097;-50
2023/04/17 01:22:10;;;;;;;9.00;7.80;;;;;;;8.56;100.00;100529.87;105318;1259;60546;-49
2023/04/17 01:24:38;;;;;;;9.30;6.40;;;;;;;8.56;100.00;100524.33;105954;1259;60529;-49
2023/04/17 01:27:06;;;;;;;7.30;6.80;;;;;;;8.57;100.00;100526.82;105783;1259;75013;-48
2023/04/17 01:29:35;;;;;;;6.50;6.00;;;;;;;8.56;100.00;100528.26;105682;1260;66273;-48
2023/04/17 01:32:03;;;;;;;10.20;7.10;;;;;;;8.56;100.00;100527.36;105322;1254;73726;-49
2023/04/17 01:34:31;;;;;;;9.20;6.10;;;;;;;8.56;100.00;100525.59;105289;1260;60543;-52
2023/04/17 01:36:59;;;;;;;8.50;6.00;;;;;;;8.55;100.00;100524.88;105376;1254;60567;-46
2023/04/17 01:39:28;;;;;;;9.80;5.20;;;;;;;8.54;100.00;100524.74;106134;1259;74359;-51
2023/04/17 01:41:56;;;;;;;7.40;6.30;;;;;;;8.53;100.00;100524.04;105401;1260;68317;-49
2023/04/17 01:44:25;;;;;;;10.90;6.90;;;;;;;8.53;100.00;100526.20;105629;1255;72520;-51
2023/04/17 01:46:52;;;;;;;7.90;6.40;;;;;;;8.51;100.00;100521.05;105384;1254;62893;-51
2023/04/17 01:49:21;;;;;;;6.90;6.30;;;;;;;8.49;100.00;100522.56;105482;1255;59248;-50
2023/04/17 01:51:50;;;;;;;8.70;6.60;;;;;;;8.49;100.00;100529.73;105488;1254;73909;-53
2023/04/17 01:54:19;;;;;;;12.60;7.20;;;;;;;8.49;100.00;100530.98;105487;1259;67554;-54
2023/04/17 01:56:48;;;;;;;6.40;5.80;;;;;;;8.48;100.00;100530.80;105516;1254;72885;-52
2023/04/17 01:59:16;;;;;;;8.80;6.30;;;;;;;8.47;100.00;100532.27;105300;1257;60636;-53
2023/04/17 02:01:44;;;;;;;8.20;6.60;;;;;;;8.47;100.00;100531.91;105365;1254;60565;-53
2023/04/17 02:04:12;;;;;;;11.50;5.60;;;;;;;8.48;100.00;100528.13;105912;1258;74099;-54
2023/04/17 02:06:40;;;;;;;10.50;7.00;;;;;;;8.48;100.00;100528.12;105387;1259;67841;-53
2023/04/17 02:09:08;;;;;;;8.70;7.20;;;;;;;8.48;100.00;100525.63;105431;1254;73608;-51
2023/04/17 02:11:39;;;;;;;6.70;5.30;;;;;;;8.47;100.00;100527.42;105472;1259;62187;-53
2023/04/17 02:14:07;;;;;;;6.40;5.60;;;;;;;8.47;100.00;100530.31;105438;1259;61078;-54
2023/04/17 02:16:36;;;;;;;8.00;7.20;;;;;;;8.46;100.00;100532.66;105502;1254;73992;-53
2023/04/17 02:19:04;;;;;;;6.00;5.50;;;;;;;8.46;100.00;100530.34;105818;1260;67450;-51
2023/04/17 02:21:32;;;;;;;8.90;7.60;;;;;;;8.45;100.00;100535.71;105615;1254;72371;-53
2023/04/17 02:24:00;;;;;;;9.70;5.10;;;;;;;8.45;100.00;100537.86;105637;1259;62019;-54
2023/04/17 02:26:29;;;;;;;7.40;5.70;;;;;;;8.45;100.00;100535.00;106648;1259;60762;-50
2023/04/17 02:28:57;;;;;;;6.30;5.80;;;;;;;8.44;100.00;100538.59;105638;1255;73569;-52
2023/04/17 02:31:25;;;;;;;5.80;5.20;;;;;;;8.44;100.00;100539.30;105410;1260;66274;-53
2023/04/17 02:33:53;;;;;;;6.90;4.80;;;;;;;8.45;100.00;100543.58;106192;1259;70826;-51
2023/04/17 02:39:22;;;;;;;10.90;5.70;;;;;;;8.45;100.00;100571.13;102404;1291;601211;-54
2023/04/17 02:41:50;;;;;;;5.20;4.70;;;;;;;8.45;100.00;100599.56;104626;1269;62440;-53
2023/04/17 02:44:18;;;;;;;6.00;5.20;;;;;;;8.44;100.00;100592.42;104613;1270;59292;-50
2023/04/17 02:46:46;;;;;;;7.70;6.00;;;;;;;8.44;100.00;100589.58;104903;1264;73056;-53
2023/04/17 02:49:14;;;;;;;7.90;5.10;;;;;;;8.44;100.00;100585.11;105040;1273;66016;-52
2023/04/17 02:51:42;;;;;;;6.20;4.90;;;;;;;8.44;100.00;100589.21;104835;1268;72206;-53
2023/04/17 02:54:10;;;;;;;7.60;4.80;;;;;;;8.44;100.00;100584.74;104914;1261;150763;-53
2023/04/17 02:56:38;;;;;;;5.60;5.00;;;;;;;8.44;100.00;100583.32;105269;1266;59570;-50
2023/04/17 02:59:06;;;;;;;6.10;4.90;;;;;;;8.44;100.00;100582.77;105788;1260;71970;-51
2023/04/17 03:01:37;;;;;;;10.10;4.00;;;;;;;8.45;100.00;100585.27;105235;1266;68123;-53
2023/04/17 03:04:05;;;;;;;7.40;5.00;;;;;;;8.44;100.00;100584.92;104971;1261;72746;-52
2023/04/17 03:06:33;;;;;;;4.50;4.10;;;;;;;8.44;100.00;100585.46;105060;1265;62108;-53
2023/04/17 03:09:03;;;;;;;6.30;4.50;;;;;;;8.45;100.00;100589.02;105071;1262;60539;-51
2023/04/17 03:11:32;;;;;;;7.30;4.90;;;;;;;8.44;100.00;100590.11;105066;1267;72996;-53
2023/04/17 03:14:00;;;;;;;5.00;4.50;;;;;;;8.44;100.00;100589.77;104926;1267;67320;-53
2023/04/17 03:16:28;;;;;;;4.60;3.90;;;;;;;8.45;100.00;100588.66;104918;1266;71029;-52
2023/04/17 03:18:57;;;;;;;7.30;3.80;;;;;;;8.45;100.00;100595.45;105524;1266;63673;-52
2023/04/17 03:21:25;;;;;;;4.10;3.80;;;;;;;8.48;100.00;100599.16;106512;1261;59634;-53
2023/04/17 03:23:53;;;;;;;6.70;3.40;;;;;;;8.48;100.00;100602.17;105721;1265;72615;-53
2023/04/17 03:26:22;;;;;;;4.50;4.10;;;;;;;8.48;100.00;100605.41;105067;1266;67097;-53
2023/04/17 03:28:50;;;;;;;7.30;3.60;;;;;;;8.47;100.00;100607.39;108462;1263;71696;-53
2023/04/17 03:31:17;;;;;;;5.20;3.10;;;;;;;8.47;100.00;100609.89;107644;1263;61064;-52
2023/04/17 03:33:46;;;;;;;4.80;3.00;;;;;;;8.49;100.00;100610.58;108602;1261;60461;-54
2023/04/17 03:36:14;;;;;;;4.30;3.80;;;;;;;8.49;100.00;100610.39;108624;1261;72231;-54
2023/04/17 03:38:43;;;;;;;3.90;3.40;;;;;;;8.50;100.00;100613.23;108524;1261;66733;-53
2023/04/17 03:41:11;;;;;;;7.70;3.50;;;;;;;8.50;100.00;100612.52;106271;1270;73302;-54
2023/04/17 03:43:39;;;;;;;3.30;2.70;;;;;;;8.51;100.00;100615.84;104884;1266;63181;-52
2023/04/17 03:46:08;;;;;;;5.70;3.80;;;;;;;8.52;100.00;100614.58;108542;1261;59246;-53
2023/04/17 03:48:37;;;;;;;8.70;3.90;;;;;;;8.53;100.00;100621.00;108573;1261;72249;-53
2023/04/17 03:51:06;;;;;;;5.20;4.00;;;;;;;8.53;100.00;100627.97;108639;1261;66167;-53
2023/04/17 03:53:35;;;;;;;5.00;3.40;;;;;;;8.54;100.00;100629.39;108565;1266;72610;-54
2023/04/17 03:56:04;;;;;;;6.00;3.70;;;;;;;8.53;100.00;100633.52;106975;1269;61997;-50
2023/04/17 03:58:36;;;;;;;3.50;3.30;;;;;;;8.54;100.00;100629.93;108464;1262;60262;-54
2023/04/17 04:01:09;;;;;;;5.60;3.90;;;;;;;8.53;100.00;100632.62;105478;1269;72598;-52
2023/04/17 04:03:39;;;;;;;;;;;;;;;8.55;100.00;100635.09;104857;1262;67070;-53
2023/04/17 04:06:08;;;;;;;4.20;3.90;;;;;;;8.57;100.00;100635.59;108669;1263;71588;-53
2023/04/17 04:08:36;;;;;;;3.70;3.30;;;;;;;8.56;100.00;100635.42;108604;1262;62099;-54
2023/04/17 04:11:06;;;;;;;5.30;3.90;;;;;;;8.56;100.00;100636.67;108659;1260;58504;-53
2023/04/17 04:13:36;;;;;;;5.30;3.80;;;;;;;8.56;100.00;100636.51;108541;1266;72970;-54
2023/04/17 04:16:04;;;;;;;3.90;3.00;;;;;;;8.55;100.00;100635.98;108458;1260;65983;-55
2023/04/17 04:18:34;;;;;;;7.70;4.60;;;;;;;8.55;100.00;100641.16;107093;1266;70381;-52
2023/04/17 04:21:02;;;;;;;5.70;3.40;;;;;;;8.56;100.00;100638.45;104870;1265;61320;-52
2023/04/17 04:23:33;;;;;;;3.60;3.30;;;;;;;8.57;100.00;100639.52;104798;1265;59642;-52
2023/04/17 04:26:01;;;;;;;8.50;3.60;;;;;;;8.57;100.00;100640.93;105166;1265;73266;-52
2023/04/17 04:28:49;;;;;;;4.70;3.40;;;;;;;8.58;100.00;100644.32;104550;1267;67627;-52
2023/04/17 04:31:28;;;;;;;3.60;2.90;;;;;;;8.59;100.00;100644.83;104295;1266;73240;-53
2023/04/17 04:33:57;;;;;;;3.90;3.00;;;;;;;8.59;100.00;100643.40;104906;1267;61922;-54
2023/04/17 04:36:28;;;;;;;3.00;2.70;;;;;;;8.60;100.00;100643.52;108428;1262;60593;-53
2023/04/17 04:39:21;;;;;;;5.00;3.60;;;;;;;8.62;100.00;100654.02;105238;1270;72374;-51
2023/04/17 04:41:49;;;;;;;3.70;2.70;;;;;;;8.64;100.00;100653.45;104099;1269;65986;-53
2023/04/17 04:44:18;;;;;;;3.20;2.90;;;;;;;8.64;100.00;100651.11;104959;1263;71579;-52
2023/04/17 04:46:47;;;;;;;5.50;3.00;;;;;;;8.66;100.00;100651.45;105214;1266;61986;-53
2023/04/17 04:49:15;;;;;;;6.60;3.80;;;;;;;8.67;100.00;100653.91;104969;1264;60482;-53
2023/04/17 04:51:43;;;;;;;4.70;3.50;;;;;;;8.67;100.00;100654.48;105091;1268;73619;-54
2023/04/17 04:54:11;;;;;;;7.00;3.00;;;;;;;8.68;100.00;100655.14;104600;1267;66163;-54
2023/04/17 04:56:45;;;;;;;3.50;2.30;;;;;;;8.69;100.00;100654.20;104635;1267;73354;-52
2023/04/17 04:59:14;;;;;;;6.60;2.80;;;;;;;8.69;100.00;100652.23;104698;1266;62199;-55
2023/04/17 05:01:46;;;;;;;4.60;3.80;;;;;;;8.69;100.00;100654.37;104499;1264;59748;-52
2023/04/17 05:04:16;;;;;;;5.50;2.40;;;;;;;8.70;100.00;100652.76;104441;1267;75539;-53
2023/04/17 05:06:44;;;;;;;6.60;2.00;;;;;;;8.70;100.00;100656.52;105195;1269;67460;-52
2023/04/17 05:09:12;;;;;;;5.20;2.90;;;;;;;8.70;100.00;100656.33;105533;1264;72578;-54
2023/04/17 05:11:44;;;;;;;4.40;2.00;;;;;;;8.71;100.00;100658.81;104913;1264;63014;-54
2023/04/17 05:14:12;;;;;;;3.10;2.30;;;;;;;8.71;100.00;100659.52;104582;1264;59738;-55
2023/04/17 05:16:40;;;;;;;3.90;2.50;;;;;;;8.73;100.00;100666.27;104054;1270;71225;-54
2023/04/17 05:19:09;;;;;;;2.50;1.80;;;;;;;8.74;100.00;100670.38;104441;1267;64906;-55
2023/04/17 05:21:46;;;;;;;2.00;1.80;;;;;;;8.75;100.00;100675.20;104778;1267;73871;-55
2023/04/17 05:24:15;;;;;;;2.90;2.10;;;;;;;8.76;100.00;100673.36;104920;1267;62207;-54
2023/04/17 05:26:43;;;;;;;1.90;1.80;;;;;;;8.77;100.00;100679.21;104692;1267;60211;-55
2023/04/17 05:29:11;;;;;;;2.30;2.00;;;;;;;8.78;100.00;100681.02;105393;1264;73204;-54
2023/04/17 05:31:41;;;;;;;7.40;2.40;;;;;;;8.78;100.00;100683.67;105763;1267;65806;-54
2023/04/17 05:34:16;;;;;;;2.40;1.90;;;;;;;8.79;100.00;100685.27;105041;1266;72896;-54
2023/04/17 05:36:45;;;;;;;3.30;2.00;;;;;;;8.81;100.00;100686.30;105320;1266;61463;-54
2023/04/17 05:39:13;;;;;;;1.90;1.60;;;;;;;8.82;100.00;100686.27;105496;1257;60912;-51
2023/04/17 05:41:41;;;;;;;3.90;1.30;;;;;;;8.83;100.00;100688.57;105377;1254;72179;-53
2023/04/17 05:44:10;;;;;;;2.20;1.40;;;;;;;8.85;100.00;100688.33;105568;1254;66379;-52
2023/04/17 05:46:38;;;;;;;2.20;1.60;;;;;;;8.88;100.00;100689.86;105492;1258;72586;-53
2023/04/17 05:49:06;;;;;;;6.70;1.60;;;;;;;8.91;100.00;100689.61;105494;1266;61420;-54
2023/04/17 05:51:34;;;;;;;1.90;1.10;;;;;;;8.94;100.00;100694.70;105637;1254;59815;-53
2023/04/17 05:54:02;;;;;;;5.00;1.20;;;;;;;8.98;100.00;100696.22;105745;1260;73092;-54
2023/04/17 05:56:30;;;;;;;5.70;2.00;;;;;;;9.01;100.00;100695.59;106320;1258;68445;-53
2023/04/17 05:58:59;;;;;;;1.90;1.10;;;;;;;9.05;100.00;100695.30;105673;1260;72018;-49
2023/04/17 06:01:28;;;;;;;3.30;1.40;;;;;;;9.08;100.00;100698.27;105688;1260;62637;-52
2023/04/17 06:03:56;;;;;;;1.80;1.20;;;;;;;9.12;100.00;100696.37;105977;1255;60533;-53
2023/04/17 06:06:27;;;;;;;3.70;1.20;;;;;;;9.15;100.00;100697.73;106466;1260;72877;-49
2023/04/17 06:08:56;;;;;;;1.80;1.10;;;;;;;9.17;100.00;100701.27;106307;1254;67349;-52
2023/04/17 06:11:24;;;;;;;2.50;0.80;;;;;;;9.19;100.00;100705.14;106322;1257;73402;-54
2023/04/17 06:13:53;;;;;;;3.20;1.10;;;;;;;9.22;100.00;100710.61;107641;1254;63197;-53
2023/04/17 06:16:21;;;;;;;5.30;1.30;;;;;;;9.25;100.00;100710.16;105839;1256;59672;-52
2023/04/17 06:18:49;;;;;;;4.80;1.40;;;;;;;9.29;100.00;100707.90;105194;1262;73184;-53
2023/04/17 06:21:17;;;;;;;4.00;1.00;;;;;;;9.33;100.00;100709.77;105373;1260;68190;-53
2023/04/17 06:23:45;;;;;;;2.60;1.00;;;;;;;9.36;100.00;100713.62;105257;1260;73540;-53
2023/04/17 06:26:16;;;;;;;3.40;0.90;;;;;;;9.37;100.00;100713.02;106304;1254;61069;-53
2023/04/17 06:28:44;;;;;;;6.50;1.40;;;;;;;9.36;100.00;100714.65;105825;1260;59655;-52
2023/04/17 06:31:13;;;;;;;2.40;0.90;;;;;;;9.36;100.00;100711.96;106641;1259;74730;-53
2023/04/17 06:33:42;;;;;;;2.80;0.80;;;;;;;9.36;100.00;100710.75;105410;1254;68431;-53
2023/04/17 06:36:10;;;;;;;2.40;0.80;;;;;;;9.36;100.00;100714.33;107657;1257;71949;-53
2023/04/17 06:38:44;;;;;;;2.20;0.80;;;;;;;9.36;100.00;100718.08;104638;1254;61224;-51
2023/04/17 06:41:13;;;;;;;6.70;0.70;;;;;;;9.37;100.00;100720.39;108801;1256;61416;-53
2023/04/17 06:43:41;;;;;;;2.80;0.70;;;;;;;9.38;100.00;100719.30;108172;1260;71956;-50
2023/04/17 06:46:15;;;;;;;3.50;1.00;;;;;;;9.36;100.00;100721.45;104856;1260;68286;-52
2023/04/17 06:48:43;;;;;;;1.60;0.60;;;;;;;9.35;100.00;100725.45;107427;1259;71690;-51
2023/04/17 06:51:11;;;;;;;1.30;0.70;;;;;;;9.34;100.00;100727.11;104957;1260;60743;-52
2023/04/17 06:53:39;;;;;;;2.30;0.70;;;;;;;9.32;100.00;100728.58;108644;1256;61411;-53
2023/04/17 06:56:07;;;;;;;5.70;1.10;;;;;;;9.31;100.00;100730.23;105073;1256;71689;-52
2023/04/17 06:58:41;;;;;;;5.20;1.00;;;;;;;9.28;100.00;100732.08;108367;1258;68024;-52
2023/04/17 07:01:10;;;;;;;3.10;0.80;;;;;;;9.26;100.00;100732.19;107915;1258;73789;-53
2023/04/17 07:03:39;;;;;;;2.60;0.70;;;;;;;9.23;100.00;100730.27;105345;1257;60492;-53
2023/04/17 07:06:08;;;;;;;1.40;0.60;;;;;;;9.23;100.00;100729.91;108828;1257;60649;-53
2023/04/17 07:08:36;;;;;;;4.90;0.70;;;;;;;9.23;100.00;100734.41;107793;1257;72320;-53
2023/04/17 07:11:04;;;;;;;1.20;0.60;;;;;;;9.22;100.00;100733.88;105410;1258;67512;-52
2023/04/17 07:13:32;;;;;;;4.00;0.70;;;;;;;9.24;100.00;100737.77;106809;1260;71819;-53
2023/04/17 07:16:02;;;;;;;1.50;0.50;;;;;;;9.27;100.00;100736.80;105371;1260;60350;-53
2023/04/17 07:18:31;;;;;;;0.90;0.50;;;;;;;9.30;100.00;100737.23;109037;1256;61531;-54
2023/04/17 07:21:00;;;;;;;1.50;0.70;;;;;;;9.33;100.00;100736.98;108909;1257;73510;-53
2023/04/17 07:23:28;;;;;;;4.50;1.10;;;;;;;9.37;100.00;100739.73;108859;1256;65343;-54
2023/04/17 07:25:56;;;;;;;2.50;0.90;;;;;;;9.40;100.00;100743.42;108898;1254;72251;-54
2023/04/17 07:28:24;;;;;;;4.80;0.90;;;;;;;9.41;100.00;100739.09;108774;1257;58550;-53
2023/04/17 07:30:53;;;;;;;2.50;0.90;;;;;;;9.43;100.00;100741.73;106557;1256;64062;-53
2023/04/17 07:33:22;;;;;;;1.20;0.80;;;;;;;9.45;100.00;100743.09;106661;1260;73687;-51
2023/04/17 07:35:50;;;;;;;1.10;0.70;;;;;;;9.48;100.00;100744.63;105542;1258;68275;-52
2023/04/17 07:38:19;;;;;;;1.10;0.70;;;;;;;9.51;100.00;100743.81;105274;1254;72897;-53
2023/04/17 07:40:47;;;;;;;3.10;0.70;;;;;;;9.55;100.00;100748.20;105472;1260;61285;-52
2023/04/17 07:43:15;;;;;;;2.90;1.00;;;;;;;9.55;100.00;100742.80;107485;1254;62334;-53
2023/04/17 07:45:43;;;;;;;3.40;0.80;;;;;;;9.57;100.00;100746.54;106211;1254;74014;-53
2023/04/17 07:48:12;;;;;;;1.60;0.70;;;;;;;9.58;100.00;100750.08;106019;1254;68406;-52
2023/04/17 07:50:40;;;;;;;4.10;0.80;;;;;;;9.61;100.00;100745.89;106062;1254;72484;-52
2023/04/17 07:53:08;;;;;;;3.20;0.70;;;;;;;9.63;100.00;100743.64;105423;1260;60488;-52
2023/04/17 07:55:36;;;;;;;3.20;1.00;;;;;;;9.65;100.00;100746.29;105656;1254;60800;-53
2023/04/17 07:58:05;;;;;;;2.60;0.90;;;;;;;9.67;100.00;100749.10;105640;1258;74757;-53
2023/04/17 08:00:33;;;;;;;3.30;0.80;;;;;;;9.68;100.00;100746.03;106548;1254;66387;-52
2023/04/17 08:03:01;;;;;;;3.50;0.90;;;;;;;9.66;100.00;100749.84;105615;1254;71826;-52
2023/04/17 08:05:30;;;;;;;3.00;0.90;;;;;;;9.63;100.00;100749.73;105619;1254;61312;-52
2023/04/17 08:07:59;;;;;;;2.10;1.10;;;;;;;9.60;100.00;100747.15;107198;1254;60688;-53
2023/04/17 08:10:27;;;;;;;2.90;1.20;;;;;;;9.55;100.00;100741.73;105232;1254;73361;-52
2023/04/17 08:12:55;;;;;;;2.50;1.00;;;;;;;9.52;100.00;100742.21;105342;1260;64930;-53
2023/04/17 08:15:23;;;;;;;3.80;1.00;;;;;;;9.53;100.00;100742.69;106039;1254;72013;-53
2023/04/17 08:17:51;;;;;;;2.40;0.80;;;;;;;9.58;100.00;100742.74;105458;1254;60532;-53
2023/04/17 08:20:21;;;;;;;3.00;0.70;;;;;;;9.62;100.00;100739.75;105525;1260;61685;-54
2023/04/17 08:22:49;;;;;;;1.90;0.80;;;;;;;9.68;100.00;100739.75;106110;1258;73307;-53
2023/04/17 08:25:17;;;;;;;2.40;0.80;;;;;;;9.73;100.00;100737.98;105579;1254;65277;-50
2023/04/17 08:27:45;;;;;;;2.70;0.70;;;;;;;9.79;100.00;100737.27;105347;1254;73958;-53
2023/04/17 08:30:14;;;;;;;2.40;0.90;;;;;;;9.86;100.00;100741.55;105577;1260;60508;-52
2023/04/17 08:32:46;;;;;;;6.00;0.70;;;;;;;9.93;100.00;100736.16;105647;1257;62260;-53
2023/04/17 08:35:16;;;;;;;2.30;0.80;;;;;;;9.99;100.00;100734.16;106260;1256;72380;-53
2023/04/17 08:37:47;;;;;;;1.10;0.80;;;;;;;10.07;100.00;100738.58;105480;1254;67118;-54
2023/04/17 08:40:15;;;;;;;2.60;0.70;;;;;;;10.18;100.00;100743.46;106664;1254;72902;-53
2023/04/17 08:42:46;;;;;;;3.70;0.80;;;;;;;10.29;100.00;100744.76;105602;1254;60586;-54
2023/04/17 08:45:15;;;;;;;1.70;0.90;;;;;;;10.37;100.00;100742.87;106085;1254;61700;-53
2023/04/17 08:47:43;;;;;;;1.10;0.80;;;;;;;10.43;100.00;100745.02;106389;1257;74684;-51
2023/04/17 08:50:16;;;;;;;2.40;0.80;;;;;;;10.45;100.00;100749.98;105619;1254;67313;-50
2023/04/17 08:52:45;;;;;;;3.30;0.80;;;;;;;10.48;100.00;100748.80;105542;1259;70771;-53
2023/04/17 08:55:15;;;;;;;2.50;0.80;;;;;;;10.54;100.00;100743.41;106398;1254;60502;-51
2023/04/17 08:58:13;;;;;;;2.00;0.60;;;;;;;10.61;100.00;100737.41;106343;1254;60456;-52
2023/04/17 09:00:42;;;;;;;1.20;0.60;;;;;;;10.74;100.00;100744.90;105737;1259;72594;-51
2023/04/17 09:03:11;;;;;;;2.60;0.60;;;;;;;10.82;100.00;100746.05;106903;1258;66556;-52
2023/04/17 09:05:42;;;;;;;0.80;0.60;;;;;;;10.92;100.00;100743.77;105534;1254;72041;-53
2023/04/17 09:08:19;;;;;;;0.90;0.60;;;;;;;11.03;100.00;100745.34;105351;1258;60440;-53
2023/04/17 09:10:48;;;;;;;2.10;0.50;;;;;;;11.18;100.00;100752.37;107752;1255;59607;-52
2023/04/17 09:13:18;;;;;;;2.80;0.50;;;;;;;11.30;100.00;100750.70;105977;1254;74459;-52
2023/04/17 09:15:47;;;;;;;2.20;0.50;;;;;;;11.38;100.00;100747.69;106617;1259;67078;-54
2023/04/17 09:18:23;;;;;;;2.90;0.80;;;;;;;11.49;100.00;100748.56;105700;1255;71810;-52
2023/04/17 09:20:52;;;;;;;4.40;0.60;;;;;;;11.61;100.00;100754.41;105356;1259;60530;-52
2023/04/17 09:23:22;;;;;;;1.10;0.60;;;;;;;11.71;100.00;100752.42;108625;1254;59829;-52
2023/04/17 09:26:10;;;;;;;1.40;0.40;;;;;;;11.80;100.00;100753.74;105311;1254;71468;-52
2023/04/17 09:28:38;;;;;;;2.00;0.40;;;;;;;11.89;100.00;100758.10;105802;1254;66394;-53
2023/04/17 09:31:25;;;;;;;1.80;0.50;;;;;;;11.96;100.00;100755.84;105529;1261;73032;-52
2023/04/17 09:34:03;;;;;;;2.40;0.50;;;;;;;12.04;100.00;100761.27;105411;1254;60514;-53
2023/04/17 09:36:33;;;;;;;1.40;0.50;;;;;;;12.08;100.00;100765.08;106498;1257;60555;-54
2023/04/17 09:39:03;;;;;;;2.60;0.70;;;;;;;12.10;100.00;100762.10;108618;1256;74516;-54
2023/04/17 09:41:37;;;;;;;5.10;0.60;;;;;;;12.15;100.00;100766.80;108766;1254;65503;-52
2023/04/17 09:44:06;;;;;;;2.70;0.50;;;;;;;12.16;100.00;100769.10;105373;1254;72035;-53
2023/04/17 09:46:44;;;;;;;2.40;0.40;;;;;;;12.13;100.00;100765.61;108956;1254;60364;-53
2023/04/17 09:49:35;;;;;;;0.90;0.50;;;;;;;12.11;100.00;100763.70;109120;1256;58429;-54
2023/04/17 09:52:03;;;;;;;2.30;0.50;;;;;;;12.12;100.00;100764.17;109033;1254;73595;-53
2023/04/17 09:54:32;;;;;;;2.50;0.40;;;;;;;12.16;100.00;100761.36;109081;1254;68609;-53
2023/04/17 09:57:02;;;;;;;2.80;0.50;;;;;;;12.25;100.00;100770.38;109085;1254;74012;-52
2023/04/17 09:59:31;;;;;;;2.80;0.50;;;;;;;12.30;100.00;100765.30;108788;1256;60982;-53
2023/04/17 10:02:00;;;;;;;0.70;0.50;;;;;;;12.27;100.00;100763.79;108670;1257;59506;-53
2023/04/17 10:04:28;;;;;;;1.60;0.50;;;;;;;12.21;100.00;100763.15;108975;1254;73378;-53
2023/04/17 10:06:56;;;;;;;2.10;0.50;;;;;;;12.14;100.00;100767.38;109076;1254;68291;-54
2023/04/17 10:09:25;;;;;;;1.50;0.50;;;;;;;12.11;100.00;100768.73;109090;1254;70644;-54
2023/04/17 10:11:53;;;;;;;1.80;0.70;;;;;;;12.09;100.00;100777.09;109101;1254;59770;-53
2023/04/17 10:14:30;;;;;;;2.70;0.60;;;;;;;11.97;100.00;100776.83;108910;1256;59381;-52
2023/04/17 10:16:58;;;;;;;2.10;0.70;;;;;;;11.90;100.00;100777.27;108891;1254;73747;-54
2023/04/17 10:19:29;;;;;;;3.70;0.50;;;;;;;11.88;100.00;100774.30;108539;1256;66997;-53
2023/04/17 10:22:18;;;;;;;1.90;0.70;;;;;;;11.85;100.00;100773.34;107178;1254;71474;-53
2023/04/17 10:24:50;;;;;;;2.30;0.70;;;;;;;11.69;100.00;100774.63;105231;1257;62142;-52
2023/04/17 10:27:27;;;;;;;4.60;0.70;;;;;;;11.53;100.00;100772.30;109028;1255;60730;-53
2023/04/17 10:29:56;;;;;;;1.90;0.60;;;;;;;11.44;100.00;100770.52;108865;1254;75026;-52
2023/04/17 10:32:27;;;;;;;1.50;0.70;;;;;;;11.35;100.00;100763.45;106808;1254;67506;-49
2023/04/17 10:35:19;;;;;;;1.60;0.60;;;;;;;11.25;100.00;100766.50;105352;1254;73139;-50
2023/04/17 10:37:51;;;;;;;1.20;0.60;;;;;;;11.11;100.00;100766.09;108837;1257;60012;-52
2023/04/17 10:40:23;;;;;;;6.70;0.60;;;;;;;11.10;100.00;100763.63;106480;1256;62191;-52
2023/04/17 10:43:12;;;;;;;1.00;0.50;;;;;;;11.07;100.00;100761.18;105447;1260;76245;-51
2023/04/17 10:46:09;;;;;;;3.60;0.60;;;;;;;10.97;100.00;100762.96;106142;1254;65896;-52
2023/04/17 10:48:55;;;;;;;2.00;0.60;;;;;;;10.95;100.00;100763.77;105469;1254;72966;-53
2023/04/17 10:51:23;;;;;;;3.50;0.70;;;;;;;10.98;100.00;100761.66;105699;1256;60313;-52
2023/04/17 10:53:58;;;;;;;1.10;0.50;;;;;;;11.01;100.00;100757.63;105689;1257;60770;-51
2023/04/17 10:56:29;;;;;;;2.20;0.80;;;;;;;11.03;100.00;100758.27;106048;1257;71805;-51
2023/04/17 10:59:01;;;;;;;1.00;0.50;;;;;;;11.04;100.00;100755.91;108938;1257;65317;-53
2023/04/17 11:01:36;;;;;;;1.20;0.50;;;;;;;11.01;100.00;100763.73;108345;1256;72084;-53
2023/04/17 11:04:05;;;;;;;1.20;0.50;;;;;;;10.98;100.00;100756.61;105866;1260;61028;-52
2023/04/17 11:06:38;;;;;;;0.80;0.50;;;;;;;10.96;100.00;100754.56;105564;1257;60730;-48
2023/04/17 11:09:07;;;;;;;1.80;0.50;;;;;;;10.99;100.00;100750.85;105602;1260;73228;-52
2023/04/17 11:11:40;;;;;;;2.60;0.60;;;;;;;11.08;100.00;100745.73;108031;1256;67373;-51
2023/04/17 11:14:15;;;;;;;1.10;0.50;;;;;;;11.15;100.00;100746.00;108794;1254;71692;-53
2023/04/17 11:16:44;;;;;;;0.80;0.50;;;;;;;11.18;100.00;100746.08;107530;1254;60108;-53
2023/04/17 11:19:20;;;;;;;2.00;0.60;;;;;;;11.20;100.00;100740.25;105580;1254;60596;-52
2023/04/17 11:21:49;;;;;;;3.10;0.50;;;;;;;11.25;100.00;100737.91;108931;1254;73708;-53
2023/04/17 11:24:27;;;;;;;4.50;0.60;;;;;;;11.32;100.00;100734.78;109005;1255;66170;-53
2023/04/17 11:26:58;;;;;;;3.10;0.60;;;;;;;11.37;100.00;100735.70;105344;1254;71789;-51
2023/04/17 11:29:26;;;;;;;2.10;0.60;;;;;;;11.41;100.00;100734.27;105341;1258;60490;-52